Latest METARs, TAFs and NOTAMs for EINN


---------------------------------------------------------------------------
	(OBSERVATIONS)
EINN 300100Z 10015KT 9999 FEW020 BKN035 BKN100 10/06 Q0994 NOSIG=
EINN 300030Z 10016KT 9999 FEW020 SCT050 BKN210 10/06 Q0994 NOSIG=
EINN 300000Z 10016KT 9999 FEW028 SCT047 BKN080 10/06 Q0995 NOSIG=
EINN 292330Z 11018KT 9999 FEW017 SCT070 11/05 Q0995 NOSIG=
EINN 292300Z 12022KT 9999 FEW026 BKN050 BKN080 11/05 Q0996 NOSIG=
EINN 292230Z 12021KT 9999 FEW022 BKN037 BKN050 10/06 Q0996 NOSIG=
---------------------------------------------------------------------------
	(FC)
Sorry, FC For EINN Not Found
---------------------------------------------------------------------------
	(TERMINAL AREA FORECAST)
EINN 292300Z 3000/3024 11018G28KT 9999 SCT020 BKN030
    TEMPO 3000/3002 12021G33KT -RA BKN015
    TEMPO 3002/3011 12021G33KT 6000 -RA BKN012
    PROB30 TEMPO 3003/3009 4000 RA SCT018CB
    PROB30 TEMPO 3011/3014 12020G33KT -SHRA SCT018CB
    BECMG 3014/3017 10015KT
    BECMG 3018/3021 10010KT
    PROB40 TEMPO 3021/3024 -RA BKN010
    BECMG 3022/3024 08006KT=
---------------------------------------------------------------------------
	(NOTAMS)


EINN A0621/17 ILS CATEGORY II RWY 24 OUT OF SERVICE. 25 APR 21:00
    2017 UNTIL 23 JUL 04:00 2017. CREATED: 24 APR 15:10 2017

EINN A0648/17 RESCUE AND FIREFIGHTING SERVICES CHANGED TO CAT
    7. WED-SUN 0500-0600, 28 APR 05:00 2017 UNTIL 24 JUL 06:00
    2017 ESTIMATED. CREATED: 27 APR 17:06 2017

EINN A0666/17 RWY 06/24 CLOSED REF AIP SUPPLEMENT 03/17 RUNWAY
    06/24 REHABILITATION. TUE 2100-0500, WED 2035-0500, THU 2215-0500,
    FRI 2255-0500, SAT 2150-0500, 29 APR 21:50 2017 UNTIL 24
    JUL 05:00 2017. CREATED: 28 APR 23:28 2017

EINN A0667/17 TWY A CLOSED REF RUNWAY 06/24 REHABILITATION WORKS.
    TUE 2100-0500, WED 2035-0500, THU 2215-0500, FRI 2255-0500,
    SAT 2150-0500, 29 APR 21:50 2017 UNTIL 24 JUL 05:00 2017.
    CREATED: 28 APR 23:33 2017

EINN B0243/17 TDZ LIGHTS RWY 24 OUT OF SERVICE. 25 APR 21:00
    2017 UNTIL 23 JUL 04:00 2017. CREATED: 24 APR 15:16 2017

EINN B0244/17 CENTRELINE LIGHTS RWY 24 OUT OF SERVICE. 25 APR
    21:00 2017 UNTIL 23 JUL 04:00 2017. CREATED: 24 APR 15:18
    2017

---------------------------------------------------------------------------